createdAt,value
2017-11-25T00:01:40.315Z,93.70
2017-11-25T00:04:08.476Z,93.70
2017-11-25T00:06:36.625Z,93.00
2017-11-25T00:09:04.784Z,93.30
2017-11-25T00:11:33.777Z,93.30
2017-11-25T00:14:01.938Z,94.20
2017-11-25T00:16:30.100Z,94.30
2017-11-25T00:18:58.260Z,94.70
2017-11-25T00:21:26.420Z,94.80
2017-11-25T00:23:55.327Z,94.90
2017-11-25T00:26:23.708Z,94.90
2017-11-25T00:28:51.873Z,94.50
2017-11-25T00:31:20.787Z,94.10
2017-11-25T00:33:48.934Z,94.10
2017-11-25T00:36:17.083Z,94.00
2017-11-25T00:38:45.266Z,92.70
2017-11-25T00:41:13.414Z,93.20
2017-11-25T00:43:41.566Z,92.80
2017-11-25T00:46:09.716Z,92.90
2017-11-25T00:48:37.870Z,92.70
2017-11-25T00:51:06.012Z,93.40
2017-11-25T00:53:34.181Z,93.20
2017-11-25T00:56:02.321Z,93.30
2017-11-25T00:58:30.487Z,93.10
2017-11-25T01:00:58.646Z,93.00
2017-11-25T01:03:27.692Z,93.00
2017-11-25T01:05:55.832Z,93.60
2017-11-25T01:08:24.000Z,93.70
2017-11-25T01:10:52.154Z,93.80
2017-11-25T01:13:21.164Z,92.50
2017-11-25T01:15:49.350Z,92.50
2017-11-25T01:18:18.322Z,92.70
2017-11-25T01:20:46.509Z,92.70
2017-11-25T01:23:14.698Z,92.20
2017-11-25T01:25:42.895Z,91.90
2017-11-25T01:28:11.074Z,91.70
2017-11-25T01:30:39.264Z,92.20
2017-11-25T01:33:07.453Z,92.90
2017-11-25T01:35:35.653Z,92.80
2017-11-25T01:38:03.868Z,93.20
2017-11-25T01:40:32.061Z,93.20
2017-11-25T01:43:00.299Z,93.50
2017-11-25T01:45:28.504Z,93.50
2017-11-25T01:47:56.702Z,94.00
2017-11-25T01:50:25.674Z,93.30
2017-11-25T01:52:53.873Z,93.20
2017-11-25T01:55:22.824Z,92.80
2017-11-25T01:57:51.029Z,92.80
2017-11-25T02:00:19.239Z,93.10
2017-11-25T02:02:48.567Z,92.70
2017-11-25T02:05:16.774Z,92.80
2017-11-25T02:07:44.961Z,91.90
2017-11-25T02:10:13.163Z,91.50
2017-11-25T02:12:41.472Z,91.40
2017-11-25T02:15:09.658Z,91.30
2017-11-25T02:17:37.874Z,91.40
2017-11-25T02:20:06.092Z,92.30
2017-11-25T02:22:34.404Z,92.30
2017-11-25T02:25:02.610Z,92.40
2017-11-25T02:27:30.814Z,93.30
2017-11-25T02:29:59.045Z,93.40
2017-11-25T02:32:27.278Z,93.70
2017-11-25T02:34:56.222Z,94.20
2017-11-25T02:37:24.426Z,94.00
2017-11-25T02:39:53.367Z,94.30
2017-11-25T02:42:21.617Z,93.80
2017-11-25T02:44:49.828Z,93.60
2017-11-25T02:47:18.374Z,93.30
2017-11-25T02:49:46.572Z,92.20
2017-11-25T02:52:15.545Z,92.60
2017-11-25T02:54:43.741Z,91.30
2017-11-25T02:57:11.937Z,91.40
2017-11-25T02:59:40.906Z,92.20
2017-11-25T03:02:12.922Z,92.20
2017-11-25T03:04:41.216Z,92.20
2017-11-25T03:07:09.419Z,92.40
2017-11-25T03:09:37.620Z,93.20
2017-11-25T03:12:06.667Z,93.10
2017-11-25T03:14:34.876Z,93.10
2017-11-25T03:17:03.054Z,93.30
2017-11-25T03:19:31.279Z,94.00
2017-11-25T03:21:59.566Z,94.40
2017-11-25T03:24:27.762Z,94.00
2017-11-25T03:26:55.961Z,94.50
2017-11-25T03:29:24.940Z,93.30
2017-11-25T03:31:53.168Z,93.20
2017-11-25T03:34:21.348Z,92.20
2017-11-25T03:36:50.423Z,92.30
2017-11-25T03:39:18.622Z,92.80
2017-11-25T03:41:46.849Z,92.30
2017-11-25T03:44:15.801Z,93.50
2017-11-25T03:46:44.045Z,93.50
2017-11-25T03:49:12.242Z,93.40
2017-11-25T03:51:40.587Z,93.40
2017-11-25T03:54:08.798Z,93.40
2017-11-25T03:56:36.994Z,93.40
2017-11-25T03:59:05.190Z,93.40
2017-11-25T04:01:36.105Z,92.80
2017-11-25T04:04:04.287Z,92.80
2017-11-25T04:06:32.482Z,91.90
2017-11-25T04:09:00.693Z,91.50
2017-11-25T04:11:29.002Z,91.40
2017-11-25T04:13:57.230Z,92.00
2017-11-25T04:16:25.439Z,92.60
2017-11-25T04:18:53.639Z,92.70
2017-11-25T04:21:21.832Z,92.30
2017-11-25T04:23:50.784Z,94.10
2017-11-25T04:26:18.984Z,94.10
2017-11-25T04:28:47.195Z,94.90
2017-11-25T04:31:15.411Z,95.20
2017-11-25T04:33:43.632Z,95.20
2017-11-25T04:36:11.829Z,95.00
2017-11-25T04:38:40.026Z,95.30
2017-11-25T04:41:08.239Z,95.40
2017-11-25T04:43:36.438Z,93.50
2017-11-25T04:46:04.619Z,91.30
2017-11-25T04:48:32.832Z,90.70
2017-11-25T04:51:01.441Z,89.90
2017-11-25T04:53:29.696Z,89.50
2017-11-25T04:55:57.913Z,90.40
2017-11-25T04:58:26.131Z,90.30
2017-11-25T05:00:54.333Z,92.70
2017-11-25T05:03:22.796Z,93.10
2017-11-25T05:05:50.967Z,92.30
2017-11-25T05:08:19.149Z,91.70
2017-11-25T05:10:47.361Z,92.20
2017-11-25T05:13:15.560Z,91.10
2017-11-25T05:15:43.767Z,92.10
2017-11-25T05:18:11.986Z,92.10
2017-11-25T05:20:40.212Z,90.30
2017-11-25T05:23:08.367Z,90.70
2017-11-25T05:25:36.555Z,90.80
2017-11-25T05:28:04.722Z,89.50
2017-11-25T05:30:32.900Z,90.60
2017-11-25T05:33:01.081Z,90.40
2017-11-25T05:35:29.283Z,87.30
2017-11-25T05:37:57.742Z,89.60
2017-11-25T05:40:26.092Z,90.80
2017-11-25T05:42:54.423Z,90.00
2017-11-25T05:45:22.620Z,90.80
2017-11-25T05:47:50.806Z,90.80
2017-11-25T05:50:19.023Z,90.00
2017-11-25T05:52:47.303Z,88.80
2017-11-25T05:55:15.545Z,90.00
2017-11-25T05:57:43.741Z,90.80
2017-11-25T06:00:11.953Z,89.70
2017-11-25T06:02:40.214Z,90.10
2017-11-25T06:05:08.425Z,83.90
2017-11-25T06:07:37.431Z,86.50
2017-11-25T06:10:05.689Z,86.50
2017-11-25T06:12:33.936Z,88.40
2017-11-25T06:15:02.130Z,89.50
2017-11-25T06:17:30.353Z,90.70
2017-11-25T06:19:58.550Z,91.70
2017-11-25T06:22:26.819Z,88.50
2017-11-25T06:24:55.010Z,88.70
2017-11-25T06:27:23.197Z,87.00
2017-11-25T06:29:51.423Z,89.40
2017-11-25T06:32:20.764Z,89.20
2017-11-25T06:34:48.953Z,90.70
2017-11-25T06:37:17.158Z,90.20
2017-11-25T06:39:45.356Z,90.70
2017-11-25T06:42:14.667Z,91.50
2017-11-25T06:44:42.865Z,90.70
2017-11-25T06:47:11.460Z,90.00
2017-11-25T06:49:39.667Z,90.80
2017-11-25T06:52:08.805Z,91.70
2017-11-25T06:54:37.001Z,91.40
2017-11-25T06:57:05.194Z,91.30
2017-11-25T06:59:34.162Z,92.10
2017-11-25T07:02:02.419Z,92.10
2017-11-25T07:04:30.615Z,92.20
2017-11-25T07:06:58.815Z,91.80
2017-11-25T07:09:27.022Z,91.80
2017-11-25T07:11:56.508Z,91.50
2017-11-25T07:14:24.708Z,91.90
2017-11-25T07:16:52.967Z,91.90
2017-11-25T07:19:21.167Z,92.00
2017-11-25T07:21:49.366Z,92.00
2017-11-25T07:24:17.566Z,92.00
2017-11-25T07:26:45.783Z,92.20
2017-11-25T07:29:13.981Z,92.00
2017-11-25T07:31:42.244Z,91.70
2017-11-25T07:34:10.448Z,91.90
2017-11-25T07:36:38.660Z,92.30
2017-11-25T07:39:06.867Z,92.60
2017-11-25T07:41:35.146Z,92.30
2017-11-25T07:44:03.350Z,91.80
2017-11-25T07:46:31.552Z,92.20
2017-11-25T07:49:00.503Z,91.20
2017-11-25T07:51:28.702Z,91.10
2017-11-25T07:53:56.899Z,90.40
2017-11-25T07:56:25.097Z,91.10
2017-11-25T07:58:53.284Z,91.90
2017-11-25T08:01:21.480Z,90.80
2017-11-25T08:03:49.688Z,91.50
2017-11-25T08:06:19.006Z,91.90
2017-11-25T08:08:47.211Z,90.90
2017-11-25T08:11:15.362Z,90.40
2017-11-25T08:13:43.536Z,91.40
2017-11-25T08:16:11.708Z,91.60
2017-11-25T08:18:39.946Z,90.20
2017-11-25T08:21:08.867Z,90.00
2017-11-25T08:23:37.266Z,90.00
2017-11-25T08:26:05.551Z,88.50
2017-11-25T08:28:33.715Z,89.00
2017-11-25T08:31:01.961Z,85.80
2017-11-25T08:33:30.900Z,87.60
2017-11-25T08:35:59.836Z,89.40
2017-11-25T08:38:28.044Z,89.40
2017-11-25T08:40:56.221Z,88.60
2017-11-25T08:43:24.498Z,91.30
2017-11-25T08:45:52.694Z,88.00
2017-11-25T08:48:20.848Z,87.60
2017-11-25T08:50:48.988Z,85.70
2017-11-25T08:53:18.047Z,88.30
2017-11-25T08:55:46.216Z,87.60
2017-11-25T08:58:14.349Z,88.90
2017-11-25T09:00:42.907Z,90.70
2017-11-25T09:03:11.348Z,88.90
2017-11-25T09:05:39.739Z,87.80
2017-11-25T09:08:07.895Z,90.00
2017-11-25T09:10:36.083Z,89.90
2017-11-25T09:13:04.251Z,88.30
2017-11-25T09:15:32.405Z,88.30
2017-11-25T09:18:00.551Z,87.30
2017-11-25T09:20:28.702Z,80.60
2017-11-25T09:22:56.903Z,79.70
2017-11-25T09:25:25.056Z,82.30
2017-11-25T09:27:53.222Z,85.20
2017-11-25T09:30:21.717Z,85.20
2017-11-25T09:33:10.725Z,85.20
2017-11-25T09:35:46.828Z,85.20
2017-11-25T09:38:15.032Z,90.30
2017-11-25T09:40:43.319Z,86.50
2017-11-25T09:43:11.585Z,85.20
2017-11-25T09:45:39.762Z,83.80
2017-11-25T09:48:07.917Z,83.20
2017-11-25T09:50:36.072Z,85.20
2017-11-25T09:53:04.297Z,81.30
2017-11-25T09:55:32.444Z,80.30
2017-11-25T09:58:01.359Z,85.10
2017-11-25T10:00:29.530Z,85.00
2017-11-25T10:02:57.789Z,83.40
2017-11-25T10:05:25.967Z,78.80
2017-11-25T10:07:54.136Z,81.00
2017-11-25T10:10:22.284Z,77.40
2017-11-25T10:12:51.251Z,80.10
2017-11-25T10:15:19.610Z,84.80
2017-11-25T10:17:47.768Z,83.20
2017-11-25T10:20:15.922Z,83.10
2017-11-25T10:22:44.281Z,87.80
2017-11-25T10:25:12.405Z,83.40
2017-11-25T10:27:41.327Z,83.90
2017-11-25T10:30:10.080Z,84.00
2017-11-25T10:32:38.332Z,82.10
2017-11-25T10:35:06.603Z,85.10
2017-11-25T10:37:34.783Z,86.90
2017-11-25T10:40:03.717Z,85.90
2017-11-25T10:42:31.880Z,85.80
2017-11-25T10:45:00.048Z,87.70
2017-11-25T10:47:28.220Z,85.00
2017-11-25T10:49:56.414Z,85.80
2017-11-25T10:52:25.957Z,85.90
2017-11-25T10:54:54.623Z,84.60
2017-11-25T10:57:22.884Z,86.10
2017-11-25T10:59:51.796Z,85.70
2017-11-25T11:02:21.933Z,85.70
2017-11-25T11:04:50.124Z,88.00
2017-11-25T11:07:19.058Z,85.30
2017-11-25T11:09:47.229Z,85.30
2017-11-25T11:12:15.472Z,89.30
2017-11-25T11:14:43.635Z,87.10
2017-11-25T11:17:12.737Z,80.90
2017-11-25T11:19:41.651Z,86.00
2017-11-25T11:22:09.800Z,86.00
2017-11-25T11:24:38.941Z,84.70
2017-11-25T11:27:07.136Z,84.70
2017-11-25T11:29:35.323Z,84.80
2017-11-25T11:32:03.526Z,86.80
2017-11-25T11:34:32.379Z,83.10
2017-11-25T11:37:00.558Z,85.70
2017-11-25T11:39:29.375Z,87.20
2017-11-25T11:41:58.336Z,85.60
2017-11-25T11:44:26.512Z,85.60
2017-11-25T11:46:54.674Z,86.40
2017-11-25T11:49:22.815Z,84.50
2017-11-25T11:51:56.755Z,85.10
2017-11-25T11:54:24.911Z,79.80
2017-11-25T11:56:54.095Z,79.80
2017-11-25T11:59:22.253Z,74.70
2017-11-25T12:01:50.425Z,79.40
2017-11-25T12:04:18.571Z,78.70
2017-11-25T12:06:46.734Z,77.80
2017-11-25T12:09:15.408Z,80.40
2017-11-25T12:11:43.551Z,83.70
2017-11-25T12:14:11.691Z,80.50
2017-11-25T12:16:40.605Z,84.50
2017-11-25T12:19:08.747Z,84.50
2017-11-25T12:21:36.927Z,82.70
2017-11-25T12:24:05.840Z,82.50
2017-11-25T12:26:34.019Z,82.40
2017-11-25T12:29:02.159Z,80.60
2017-11-25T12:31:32.006Z,78.80
2017-11-25T12:34:00.171Z,82.30
2017-11-25T12:36:28.318Z,79.00
2017-11-25T12:38:56.470Z,76.30
2017-11-25T12:41:24.699Z,71.30
2017-11-25T12:43:52.841Z,74.90
2017-11-25T12:46:21.030Z,75.70
2017-11-25T12:48:49.950Z,74.40
2017-11-25T12:51:18.132Z,74.40
2017-11-25T12:53:46.282Z,73.90
2017-11-25T12:56:14.438Z,77.30
2017-11-25T12:58:42.654Z,77.60
2017-11-25T13:01:10.815Z,74.00
2017-11-25T13:03:38.970Z,76.80
2017-11-25T13:06:07.136Z,74.20
2017-11-25T13:08:36.083Z,80.30
2017-11-25T13:11:05.197Z,80.30
2017-11-25T13:13:33.335Z,76.20
2017-11-25T13:16:01.487Z,73.90
2017-11-25T13:18:29.693Z,73.80
2017-11-25T13:20:57.863Z,77.20
2017-11-25T13:23:26.017Z,79.00
2017-11-25T13:25:54.183Z,76.40
2017-11-25T13:28:22.362Z,72.90
2017-11-25T13:30:50.515Z,72.80
2017-11-25T13:33:19.526Z,76.60
2017-11-25T13:35:47.717Z,76.70
2017-11-25T13:38:16.705Z,75.20
2017-11-25T13:40:44.858Z,77.20
2017-11-25T13:43:13.920Z,70.00
2017-11-25T13:45:42.145Z,69.90
2017-11-25T13:48:10.314Z,72.00
2017-11-25T13:50:38.486Z,74.40
2017-11-25T13:53:07.801Z,72.50
2017-11-25T13:55:35.951Z,74.90
2017-11-25T13:58:04.890Z,74.70
2017-11-25T14:00:33.134Z,74.70
2017-11-25T14:03:04.771Z,73.00
2017-11-25T14:05:35.710Z,66.70
2017-11-25T14:08:03.865Z,66.70
2017-11-25T14:10:32.042Z,66.00
2017-11-25T14:13:00.358Z,67.10
2017-11-25T14:15:29.292Z,72.40
2017-11-25T14:17:57.465Z,74.10
2017-11-25T14:20:25.632Z,75.20
2017-11-25T14:22:53.858Z,75.20
2017-11-25T14:25:22.013Z,76.80
2017-11-25T14:27:50.939Z,80.40
2017-11-25T14:30:19.093Z,79.60
2017-11-25T14:32:47.434Z,79.60
2017-11-25T14:35:16.267Z,81.20
2017-11-25T14:37:44.415Z,83.80
2017-11-25T14:40:12.677Z,84.40
2017-11-25T14:42:40.890Z,83.30
2017-11-25T14:45:09.031Z,78.80
2017-11-25T14:47:37.202Z,82.10
2017-11-25T14:50:05.342Z,82.10
2017-11-25T14:52:33.575Z,79.40
2017-11-25T14:55:01.715Z,78.10
2017-11-25T14:57:29.871Z,80.30
2017-11-25T14:59:58.022Z,78.80
2017-11-25T15:02:27.414Z,81.10
2017-11-25T15:04:56.320Z,75.50
2017-11-25T15:07:24.466Z,75.60
2017-11-25T15:09:52.626Z,78.60
2017-11-25T15:12:21.803Z,77.50
2017-11-25T15:14:49.973Z,77.50
2017-11-25T15:17:19.232Z,77.20
2017-11-25T15:19:47.383Z,77.80
2017-11-25T15:22:16.630Z,79.60
2017-11-25T15:24:46.218Z,78.00
2017-11-25T15:27:14.406Z,76.30
2017-11-25T15:29:42.606Z,78.50
2017-11-25T15:32:10.780Z,77.80
2017-11-25T15:34:39.297Z,79.70
2017-11-25T15:37:09.269Z,79.00
2017-11-25T15:39:37.597Z,79.00
2017-11-25T15:42:13.981Z,79.00
2017-11-25T15:44:42.168Z,78.70
2017-11-25T15:47:11.480Z,74.20
2017-11-25T15:49:40.501Z,79.10
2017-11-25T15:52:08.687Z,80.40
2017-11-25T15:54:38.027Z,82.40
2017-11-25T15:57:06.220Z,83.40
2017-11-25T15:59:34.595Z,84.60
2017-11-25T16:02:08.100Z,85.70
2017-11-25T16:04:36.280Z,85.70
2017-11-25T16:07:06.558Z,83.30
2017-11-25T16:09:35.935Z,87.20
2017-11-25T16:12:04.673Z,87.20
2017-11-25T16:14:32.843Z,87.40
2017-11-25T16:17:01.014Z,86.00
2017-11-25T16:19:29.811Z,84.20
2017-11-25T16:21:57.970Z,81.50
2017-11-25T16:24:26.883Z,79.90
2017-11-25T16:26:55.851Z,79.40
2017-11-25T16:29:25.049Z,79.60
2017-11-25T16:31:53.326Z,80.90
2017-11-25T16:34:21.500Z,81.50
2017-11-25T16:36:49.674Z,79.70
2017-11-25T16:39:17.824Z,81.90
2017-11-25T16:41:49.793Z,85.70
2017-11-25T16:44:18.712Z,81.50
2017-11-25T16:46:47.795Z,81.40
2017-11-25T16:49:15.957Z,88.20
2017-11-25T16:51:44.868Z,87.80
2017-11-25T16:54:13.032Z,87.80
2017-11-25T16:56:41.248Z,87.70
2017-11-25T16:59:09.451Z,88.60
2017-11-25T17:01:38.587Z,89.00
2017-11-25T17:04:06.821Z,89.80
2017-11-25T17:06:35.146Z,90.10
2017-11-25T17:09:03.304Z,90.50
2017-11-25T17:11:31.482Z,90.90
2017-11-25T17:13:59.662Z,90.30
2017-11-25T17:16:27.826Z,91.10
2017-11-25T17:18:55.972Z,90.50
2017-11-25T17:21:25.436Z,90.30
2017-11-25T17:23:53.581Z,84.80
2017-11-25T17:26:21.731Z,87.60
2017-11-25T17:28:49.902Z,87.20
2017-11-25T17:31:18.827Z,87.60
2017-11-25T17:33:50.413Z,86.30
2017-11-25T17:36:18.646Z,86.00
2017-11-25T17:38:46.898Z,85.50
2017-11-25T17:41:15.088Z,88.40
2017-11-25T17:43:43.247Z,88.90
2017-11-25T17:46:11.470Z,87.10
2017-11-25T17:48:39.633Z,88.00
2017-11-25T17:51:07.798Z,83.90
2017-11-25T17:53:36.013Z,85.00
2017-11-25T17:56:04.174Z,83.70
2017-11-25T17:58:32.332Z,85.60
2017-11-25T18:01:00.493Z,83.00
2017-11-25T18:03:28.667Z,80.40
2017-11-25T18:05:57.733Z,81.90
2017-11-25T18:08:25.879Z,81.20
2017-11-25T18:10:54.021Z,84.60
2017-11-25T18:13:22.189Z,85.20
2017-11-25T18:15:50.402Z,89.00
2017-11-25T18:18:18.672Z,88.20
2017-11-25T18:20:46.827Z,87.10
2017-11-25T18:23:15.293Z,85.20
2017-11-25T18:25:43.455Z,87.60
2017-11-25T18:28:11.630Z,87.10
2017-11-25T18:30:39.814Z,87.90
2017-11-25T18:33:08.103Z,87.50
2017-11-25T18:35:36.718Z,88.40
2017-11-25T18:38:04.883Z,88.50
2017-11-25T18:40:33.102Z,86.80
2017-11-25T18:43:01.262Z,87.40
2017-11-25T18:45:29.480Z,87.90
2017-11-25T18:47:57.631Z,89.00
2017-11-25T18:50:26.623Z,89.30
2017-11-25T18:52:54.910Z,89.40
2017-11-25T18:55:23.115Z,89.20
2017-11-25T18:57:52.103Z,88.70
2017-11-25T19:00:20.329Z,88.40
2017-11-25T19:02:48.530Z,89.20
2017-11-25T19:05:16.686Z,88.20
2017-11-25T19:07:44.954Z,89.70
2017-11-25T19:10:13.352Z,89.40
2017-11-25T19:12:42.356Z,89.10
2017-11-25T19:15:10.543Z,89.10
2017-11-25T19:17:38.705Z,88.60
2017-11-25T19:20:06.882Z,88.10
2017-11-25T19:22:35.081Z,87.60
2017-11-25T19:25:03.235Z,87.60
2017-11-25T19:27:31.396Z,87.60
2017-11-25T19:29:59.545Z,88.20
2017-11-25T19:32:30.221Z,88.40
2017-11-25T19:34:58.424Z,89.50
2017-11-25T19:37:26.619Z,88.60
2017-11-25T19:39:54.833Z,87.50
2017-11-25T19:42:27.440Z,88.20
2017-11-25T19:44:55.734Z,88.30
2017-11-25T19:47:25.436Z,87.00
2017-11-25T19:49:53.609Z,87.60
2017-11-25T19:52:23.890Z,86.90
2017-11-25T19:54:52.074Z,87.10
2017-11-25T19:57:20.306Z,86.00
2017-11-25T19:59:48.473Z,86.00
2017-11-25T20:02:16.727Z,85.70
2017-11-25T20:04:44.916Z,86.20
2017-11-25T20:07:13.104Z,87.60
2017-11-25T20:09:41.258Z,85.80
2017-11-25T20:12:10.512Z,86.80
2017-11-25T20:14:38.673Z,86.10
2017-11-25T20:17:07.619Z,86.80
2017-11-25T20:19:35.788Z,86.80
2017-11-25T20:22:05.025Z,87.60
2017-11-25T20:24:33.955Z,88.30
2017-11-25T20:27:02.108Z,87.60
2017-11-25T20:29:30.297Z,87.30
2017-11-25T20:31:58.460Z,87.90
2017-11-25T20:34:26.619Z,88.90
2017-11-25T20:36:56.587Z,87.10
2017-11-25T20:39:25.459Z,87.60
2017-11-25T20:41:57.326Z,88.90
2017-11-25T20:44:25.467Z,84.40
2017-11-25T20:46:54.478Z,87.80
2017-11-25T20:49:22.629Z,87.80
2017-11-25T20:51:51.671Z,87.90
2017-11-25T20:54:19.850Z,87.90
2017-11-25T20:56:48.022Z,88.50
2017-11-25T20:59:16.174Z,88.20
2017-11-25T21:01:47.627Z,85.40
2017-11-25T21:04:15.794Z,84.60
2017-11-25T21:06:45.018Z,84.80
2017-11-25T21:09:13.199Z,85.80
2017-11-25T21:11:41.367Z,86.00
2017-11-25T21:14:09.571Z,87.10
2017-11-25T21:16:37.738Z,87.90
2017-11-25T21:19:05.941Z,87.80
2017-11-25T21:21:35.896Z,89.50
2017-11-25T21:24:04.089Z,89.50
2017-11-25T21:26:32.304Z,86.30
2017-11-25T21:29:01.228Z,85.90
2017-11-25T21:31:30.483Z,87.60
2017-11-25T21:33:59.255Z,87.60
2017-11-25T21:36:27.477Z,88.10
2017-11-25T21:38:55.637Z,90.10
2017-11-25T21:41:23.949Z,90.00
2017-11-25T21:43:52.104Z,90.20
2017-11-25T21:46:20.261Z,90.10
2017-11-25T21:48:48.425Z,89.40
2017-11-25T21:51:17.361Z,90.10
2017-11-25T21:53:46.228Z,90.10
2017-11-25T21:56:14.508Z,90.00
2017-11-25T21:58:43.250Z,88.20
2017-11-25T22:01:11.428Z,90.00
2017-11-25T22:03:39.586Z,90.50
2017-11-25T22:06:07.790Z,90.60
2017-11-25T22:08:35.941Z,90.60
2017-11-25T22:11:04.703Z,90.30
2017-11-25T22:13:32.858Z,90.40
2017-11-25T22:16:24.470Z,90.10
2017-11-25T22:18:52.629Z,89.80
2017-11-25T22:21:20.955Z,87.40
2017-11-25T22:23:49.123Z,87.50
2017-11-25T22:26:18.196Z,88.00
2017-11-25T22:28:46.363Z,88.90
2017-11-25T22:31:14.536Z,89.60
2017-11-25T22:33:43.453Z,90.30
2017-11-25T22:36:11.621Z,90.30
2017-11-25T22:38:39.827Z,89.80
2017-11-25T22:41:08.000Z,90.00
2017-11-25T22:43:36.148Z,88.80
2017-11-25T22:46:04.315Z,90.00
2017-11-25T22:48:32.473Z,89.40
2017-11-25T22:51:00.631Z,89.40
2017-11-25T22:53:29.567Z,90.20
2017-11-25T22:55:57.819Z,90.20
2017-11-25T22:58:26.736Z,88.30
2017-11-25T23:00:54.894Z,88.40
2017-11-25T23:03:24.705Z,90.40
2017-11-25T23:05:58.601Z,86.20
2017-11-25T23:08:29.495Z,81.60
2017-11-25T23:10:57.686Z,81.60
2017-11-25T23:13:25.909Z,83.20
2017-11-25T23:15:54.068Z,82.30
2017-11-25T23:18:22.315Z,83.90
2017-11-25T23:20:50.467Z,83.30
2017-11-25T23:23:18.795Z,83.50
2017-11-25T23:25:46.950Z,83.50
2017-11-25T23:28:15.893Z,85.30
2017-11-25T23:30:44.110Z,85.50
2017-11-25T23:33:12.512Z,85.00
2017-11-25T23:35:41.425Z,85.00
2017-11-25T23:38:09.569Z,85.00
2017-11-25T23:40:37.739Z,87.10
2017-11-25T23:43:05.933Z,84.60
2017-11-25T23:45:34.714Z,85.90
2017-11-25T23:48:02.874Z,83.20
2017-11-25T23:50:31.096Z,84.30
2017-11-25T23:53:05.241Z,83.40
2017-11-25T23:55:35.495Z,85.70
2017-11-25T23:58:03.709Z,84.70
